Time;durP1;ratioP1;P1;durP2;ratioP2;P2;SDS_P1;SDS_P2;PMS_P1;PMS_P2;Temp;Humidity;BMP_temperature;BMP_pressure;BME280_temperature;BME280_humidity;BME280_pressure;Samples;Min_cycle;Max_cycle;Signal;HPM_P1;HPM_P2
2022/09/21 00:01:18;;;;;;;7.55;4.07;;;;;;;14.84;71.58;101791.72;4974858;28;20506;-47
2022/09/21 00:03:45;;;;;;;8.73;3.53;;;;;;;14.84;71.53;101786.97;4988289;28;20117;-43
2022/09/21 00:06:17;;;;;;;4.32;2.72;;;;;;;14.83;71.48;101782.53;4989516;28;20058;-48
2022/09/21 00:08:45;;;;;;;5.28;2.35;;;;;;;14.86;71.50;101778.25;4987383;28;20050;-46
2022/09/21 00:11:19;;;;;;;6.15;2.78;;;;;;;14.88;71.35;101779.53;4987904;28;20505;-46
2022/09/21 00:13:46;;;;;;;4.25;2.30;;;;;;;14.87;71.31;101777.91;4989184;28;20137;-47
2022/09/21 00:16:15;;;;;;;4.28;2.67;;;;;;;14.89;71.04;101786.72;4989407;28;20046;-49
2022/09/21 00:18:42;;;;;;;4.05;2.17;;;;;;;14.90;71.27;101780.00;4983547;28;20049;-48
2022/09/21 00:21:11;;;;;;;4.75;2.90;;;;;;;14.89;71.27;101786.72;4989325;28;20053;-46
2022/09/21 00:23:40;;;;;;;4.72;3.10;;;;;;;14.91;71.26;101778.81;4989010;28;20108;-46
2022/09/21 00:26:13;;;;;;;8.10;3.35;;;;;;;14.93;71.25;101776.50;4987067;28;20488;-45
2022/09/21 00:28:40;;;;;;;3.80;2.38;;;;;;;14.94;71.20;101783.72;4988421;28;20046;-47
2022/09/21 00:31:11;;;;;;;2.47;2.25;;;;;;;14.99;71.34;101783.47;4989579;28;20072;-44
2022/09/21 00:33:39;;;;;;;4.90;2.20;;;;;;;15.02;71.15;101784.75;4989326;28;20054;-45
2022/09/21 00:36:15;;;;;;;4.55;1.80;;;;;;;14.99;71.00;101783.47;4989122;28;20062;-43
2022/09/21 00:38:44;;;;;;;3.40;2.92;;;;;;;15.00;70.99;101787.91;4986119;28;20034;-45
2022/09/21 00:41:12;;;;;;;3.67;2.13;;;;;;;14.98;70.87;101790.22;4985492;28;20050;-45
2022/09/21 00:43:44;;;;;;;2.10;1.90;;;;;;;15.00;70.89;101787.91;4988219;28;20088;-48
2022/09/21 00:46:23;;;;;;;4.80;2.38;;;;;;;14.99;70.69;101775.09;4991122;28;20373;-44
2022/09/21 00:48:50;;;;;;;5.05;1.88;;;;;;;14.96;70.87;101780.56;4991391;28;20082;-44
2022/09/21 00:51:17;;;;;;;4.50;1.88;;;;;;;14.91;71.00;101778.81;4987897;28;20042;-46
2022/09/21 00:53:45;;;;;;;2.58;1.80;;;;;;;14.88;70.97;101779.53;4987617;28;20058;-46
2022/09/21 00:56:14;;;;;;;5.60;1.75;;;;;;;14.85;71.02;101774.63;4991108;28;20081;-50
2022/09/21 00:58:45;;;;;;;4.40;2.45;;;;;;;14.86;71.10;101776.28;4990882;28;20609;-43
2022/09/21 01:01:15;;;;;;;2.63;1.73;;;;;;;14.85;71.14;101783.00;4991659;28;20058;-44
2022/09/21 01:03:44;;;;;;;3.72;2.30;;;;;;;14.83;71.17;101767.78;4985856;28;20120;-43
2022/09/21 01:06:13;;;;;;;4.20;2.53;;;;;;;14.81;71.42;101768.16;4990716;28;20124;-44
2022/09/21 01:08:41;;;;;;;6.95;2.58;;;;;;;14.81;71.40;101773.72;4988464;28;20141;-44
2022/09/21 01:11:31;;;;;;;3.65;2.63;;;;;;;14.81;71.49;101772.91;4990901;28;20838;-46
2022/09/21 01:14:06;;;;;;;4.10;2.10;;;;;;;14.82;71.36;101764.22;4992171;28;20567;-44
2022/09/21 01:16:39;;;;;;;4.70;2.50;;;;;;;14.82;71.32;101772.56;4990266;28;20058;-44
2022/09/21 01:19:38;;;;;;;5.30;2.78;;;;;;;14.84;71.36;101764.66;4991267;28;20074;-45
2022/09/21 01:22:20;;;;;;;3.60;2.00;;;;;;;14.85;71.45;101768.28;4965039;28;20136;-45
2022/09/21 01:24:59;;;;;;;6.65;2.25;;;;;;;14.83;71.35;101760.25;4988408;28;20053;-42
2022/09/21 01:27:50;;;;;;;3.97;2.50;;;;;;;14.83;71.38;101753.84;4981225;28;20042;-45
2022/09/21 01:30:20;;;;;;;4.67;2.33;;;;;;;14.81;71.31;101754.19;4991535;28;20100;-43
2022/09/21 01:33:08;;;;;;;3.03;2.20;;;;;;;14.82;71.61;101749.44;4992269;28;20518;-44
2022/09/21 01:35:41;;;;;;;3.40;2.20;;;;;;;14.81;71.49;101757.00;4991195;28;20114;-46
2022/09/21 01:38:14;;;;;;;4.65;2.50;;;;;;;14.81;71.67;101754.19;4991540;28;20113;-44
2022/09/21 01:40:44;;;;;;;5.20;2.75;;;;;;;14.79;71.65;101755.72;4991974;28;20053;-43
2022/09/21 01:43:18;;;;;;;5.50;2.65;;;;;;;14.76;71.87;101748.03;4992583;28;20108;-47
2022/09/21 01:45:50;;;;;;;2.88;2.33;;;;;;;14.75;71.97;101749.19;4991563;28;20038;-44
2022/09/21 01:48:21;;;;;;;6.20;2.60;;;;;;;14.75;72.06;101741.66;4992200;28;20046;-44
2022/09/21 01:50:53;;;;;;;4.90;2.55;;;;;;;14.77;71.93;101744.94;4992177;28;20050;-45
2022/09/21 01:53:38;;;;;;;3.95;2.38;;;;;;;14.76;71.99;101746.09;4988223;28;20053;-46
2022/09/21 01:56:12;;;;;;;4.68;2.78;;;;;;;14.76;72.20;101743.28;4991273;28;20046;-44
2022/09/21 01:58:44;;;;;;;3.92;2.50;;;;;;;14.76;72.43;101745.25;4992468;28;20394;-43
2022/09/21 02:01:14;;;;;;;6.03;2.60;;;;;;;14.75;72.47;101740.84;4961631;28;20058;-44
2022/09/21 02:03:48;;;;;;;4.55;2.90;;;;;;;14.74;72.64;101730.88;4991806;28;20078;-46
2022/09/21 02:06:17;;;;;;;4.88;3.10;;;;;;;14.75;72.76;101735.25;4990573;28;20046;-47
2022/09/21 02:08:45;;;;;;;7.10;4.43;;;;;;;14.74;72.75;101728.91;4989427;28;20105;-45
2022/09/21 02:11:12;;;;;;;6.95;2.85;;;;;;;14.71;72.75;101721.22;4991793;28;20047;-43
2022/09/21 02:13:44;;;;;;;3.88;2.33;;;;;;;14.70;72.77;101721.56;4988072;28;20046;-44
2022/09/21 02:16:23;;;;;;;3.55;2.90;;;;;;;14.68;72.78;101721.94;4990243;28;20492;-45
2022/09/21 02:19:09;;;;;;;5.40;2.95;;;;;;;14.66;73.06;101715.06;4979331;28;20436;-49
2022/09/21 02:21:48;;;;;;;3.53;2.25;;;;;;;14.63;72.98;101714.63;4990755;28;20057;-48
2022/09/21 02:24:37;;;;;;;4.80;2.80;;;;;;;14.62;73.13;101714.94;4991277;28;20053;-44
2022/09/21 02:27:30;;;;;;;;;;;;;;;14.60;72.96;101718.09;4991224;28;20218;-46
2022/09/21 02:30:10;;;;;;;6.32;3.90;;;;;;;14.58;72.85;101702.88;4989126;28;19926;-46
2022/09/21 02:32:42;;;;;;;5.03;3.85;;;;;;;14.58;72.66;101702.88;4991517;28;20050;-45
2022/09/21 02:35:18;;;;;;;6.38;3.53;;;;;;;14.59;72.53;101710.06;4990097;28;20046;-44
2022/09/21 02:38:06;;;;;;;11.32;4.65;;;;;;;14.60;72.46;101712.53;4989739;28;20042;-45
2022/09/21 02:41:02;;;;;;;6.13;4.30;;;;;;;14.59;72.13;101710.06;4991168;28;20505;-43
2022/09/21 02:43:47;;;;;;;7.75;3.40;;;;;;;14.58;72.19;101711.25;4989301;28;20065;-46
2022/09/21 02:46:23;;;;;;;7.70;4.80;;;;;;;14.57;72.13;101706.81;4990782;28;20050;-45
2022/09/21 02:48:57;;;;;;;7.63;4.03;;;;;;;14.56;71.95;101699.66;4989659;28;20053;-44
2022/09/21 02:51:33;;;;;;;5.85;3.75;;;;;;;14.53;72.01;101698.34;4988691;28;20049;-43
2022/09/21 02:54:05;;;;;;;6.45;3.88;;;;;;;14.53;72.11;101700.34;4985716;28;20055;-44
2022/09/21 02:56:32;;;;;;;6.45;4.03;;;;;;;14.51;72.21;101697.06;5005396;28;20404;-52
2022/09/21 02:59:03;;;;;;;8.40;4.15;;;;;;;14.48;72.12;101695.00;4989891;28;20054;-44
2022/09/21 03:01:31;;;;;;;6.95;3.33;;;;;;;14.45;72.21;101688.16;4979740;23;20081;-43
2022/09/21 03:03:59;;;;;;;5.25;3.72;;;;;;;14.43;72.08;101684.88;4990370;28;20042;-48
2022/09/21 03:06:25;;;;;;;9.30;4.22;;;;;;;14.40;71.96;101690.34;4987630;28;20526;-44
2022/09/21 03:08:52;;;;;;;7.47;4.03;;;;;;;14.37;72.20;101680.72;4988419;28;20061;-43
2022/09/21 03:11:19;;;;;;;4.57;3.00;;;;;;;14.34;72.27;101680.59;4990624;28;20057;-46
2022/09/21 03:13:46;;;;;;;4.68;3.40;;;;;;;14.30;72.33;101685.19;4999036;28;20456;-46
2022/09/21 03:16:16;;;;;;;4.03;3.10;;;;;;;14.27;72.23;101680.34;4991364;28;20574;-47
2022/09/21 03:18:43;;;;;;;4.88;3.45;;;;;;;14.22;72.45;101673.00;4991597;28;20046;-45
2022/09/21 03:21:11;;;;;;;6.70;2.97;;;;;;;14.20;72.64;101680.09;4987230;28;20052;-45
2022/09/21 03:23:38;;;;;;;4.82;3.17;;;;;;;14.15;72.50;101681.13;4990361;28;20470;-44
2022/09/21 03:26:06;;;;;;;4.40;2.97;;;;;;;14.10;72.81;101673.00;4995190;28;20131;-43
2022/09/21 03:28:33;;;;;;;4.65;3.97;;;;;;;14.09;73.05;101678.91;4991079;28;20064;-51
2022/09/21 03:31:00;;;;;;;4.85;3.25;;;;;;;14.06;73.17;101674.84;4980184;28;20488;-49
2022/09/21 03:33:26;;;;;;;4.72;2.60;;;;;;;14.01;73.29;101673.09;4990188;28;20101;-45
2022/09/21 03:35:53;;;;;;;7.47;2.85;;;;;;;13.97;73.32;101677.75;4992527;28;20047;-49
2022/09/21 03:38:20;;;;;;;4.70;3.45;;;;;;;13.92;73.29;101675.19;5010791;28;20081;-48
2022/09/21 03:40:48;;;;;;;5.85;3.50;;;;;;;13.87;73.32;101678.16;4990330;28;20054;-48
2022/09/21 03:43:16;;;;;;;5.30;3.63;;;;;;;13.83;73.41;101676.44;4989157;28;20054;-43
2022/09/21 03:45:43;;;;;;;8.00;3.83;;;;;;;13.81;73.50;101673.19;4989597;28;20054;-44
2022/09/21 03:48:10;;;;;;;7.25;4.22;;;;;;;13.78;73.45;101666.34;4989984;28;20057;-49
2022/09/21 03:50:37;;;;;;;3.53;3.10;;;;;;;13.76;73.47;101673.41;4988654;28;20066;-46
2022/09/21 03:53:04;;;;;;;5.80;3.63;;;;;;;13.73;73.39;101665.75;5003983;28;20464;-43
2022/09/21 03:55:32;;;;;;;5.72;3.20;;;;;;;13.68;73.43;101666.78;4989318;28;20053;-47
2022/09/21 03:57:58;;;;;;;5.75;3.83;;;;;;;13.65;73.50;101659.13;4989626;28;20121;-53
2022/09/21 04:00:25;;;;;;;7.70;4.80;;;;;;;13.64;73.54;101656.66;4990181;28;20054;-44
2022/09/21 04:07:14;;;;;;;7.15;4.18;;;;;;;13.47;73.83;101643.75;4986940;28;20050;-46
2022/09/21 04:09:40;;;;;;;8.07;4.97;;;;;;;13.40;73.88;101657.41;5003806;28;20543;-44
2022/09/21 04:12:07;;;;;;;9.90;4.63;;;;;;;13.33;73.84;101651.59;4988027;28;20496;-48
2022/09/21 04:14:34;;;;;;;5.95;3.65;;;;;;;13.31;74.14;101651.13;4988923;28;20079;-43
2022/09/21 04:17:01;;;;;;;9.25;3.78;;;;;;;13.30;74.05;101657.81;4989053;28;20046;-45
2022/09/21 04:19:27;;;;;;;6.82;4.05;;;;;;;13.24;74.36;101661.97;4988195;28;20042;-44
2022/09/21 04:21:55;;;;;;;12.52;5.68;;;;;;;13.20;74.46;101652.69;4989870;28;20050;-44
2022/09/21 04:24:22;;;;;;;8.30;4.70;;;;;;;13.18;74.47;101658.59;4989901;28;20038;-43
2022/09/21 04:26:49;;;;;;;7.72;5.05;;;;;;;13.13;74.67;101658.00;4990982;28;20053;-43
2022/09/21 04:29:15;;;;;;;7.40;4.93;;;;;;;13.09;74.61;101662.59;4996577;28;20043;-47
2022/09/21 04:31:42;;;;;;;9.40;4.60;;;;;;;13.06;74.88;101663.25;4982940;28;20053;-43
2022/09/21 04:34:12;;;;;;;6.88;4.35;;;;;;;13.02;74.87;101668.69;4989905;28;20150;-42
2022/09/21 04:36:39;;;;;;;12.73;5.97;;;;;;;12.95;75.09;101662.00;4991509;28;20062;-48
2022/09/21 04:39:05;;;;;;;8.15;5.32;;;;;;;12.93;75.29;101664.31;4989698;28;20116;-44
2022/09/21 04:41:32;;;;;;;11.98;6.05;;;;;;;12.95;75.19;101668.41;4988625;28;20369;-45
2022/09/21 04:44:00;;;;;;;12.13;6.82;;;;;;;13.03;75.06;101667.50;4989020;28;20054;-45
2022/09/21 04:46:26;;;;;;;11.77;6.50;;;;;;;13.09;74.81;101668.97;4989307;28;20050;-48
2022/09/21 04:48:53;;;;;;;11.02;6.88;;;;;;;13.14;74.59;101671.53;4993033;28;20046;-46
2022/09/21 04:51:20;;;;;;;12.10;7.00;;;;;;;13.21;74.81;101665.47;5003316;28;20053;-45
2022/09/21 04:53:47;;;;;;;13.57;6.55;;;;;;;13.24;74.67;101670.31;4991226;28;20050;-50
2022/09/21 04:56:15;;;;;;;14.40;7.88;;;;;;;13.27;74.57;101658.50;4991953;28;20402;-45
2022/09/21 04:58:42;;;;;;;11.23;6.57;;;;;;;13.30;74.72;101657.81;4997623;28;20046;-45
2022/09/21 05:01:10;;;;;;;14.55;7.50;;;;;;;13.32;74.57;101663.84;4988577;28;20539;-50
2022/09/21 05:03:37;;;;;;;20.88;8.80;;;;;;;13.32;74.68;101655.50;4986994;28;20046;-43
2022/09/21 05:06:04;;;;;;;13.95;6.97;;;;;;;13.29;74.75;101659.00;4988064;28;20479;-46
2022/09/21 05:11:18;;;;;;;11.38;6.38;;;;;;;13.29;75.14;101661.78;4993441;28;20053;-50
2022/09/21 05:13:46;;;;;;;13.52;7.55;;;;;;;13.29;75.15;101662.56;4989820;28;20932;-43
2022/09/21 05:16:13;;;;;;;12.40;7.53;;;;;;;13.30;75.09;101657.81;4993888;28;20050;-43
2022/09/21 05:18:46;;;;;;;14.23;7.63;;;;;;;13.32;75.00;101661.88;4982623;28;20488;-43
2022/09/21 05:21:13;;;;;;;14.60;8.18;;;;;;;13.35;75.02;101663.19;4989371;28;20050;-42
2022/09/21 05:23:40;;;;;;;11.57;7.82;;;;;;;13.36;75.18;101667.59;4988484;28;20492;-44
2022/09/21 05:26:07;;;;;;;12.68;7.50;;;;;;;13.37;75.16;101660.84;4997639;28;20522;-45
2022/09/21 05:28:36;;;;;;;13.20;7.40;;;;;;;13.37;75.68;101667.25;4992583;28;20060;-43
2022/09/21 05:31:30;;;;;;;17.48;8.25;;;;;;;13.41;75.35;101664.59;4998009;28;20054;-43
2022/09/21 05:34:10;;;;;;;11.27;7.28;;;;;;;13.41;75.13;101668.19;4987199;28;20808;-44
2022/09/21 05:36:39;;;;;;;13.95;6.80;;;;;;;13.43;75.30;101660.31;4998379;28;20077;-44
2022/09/21 05:39:06;;;;;;;12.15;7.53;;;;;;;13.45;75.25;101662.75;4989602;28;20046;-44
2022/09/21 05:41:34;;;;;;;13.85;8.63;;;;;;;13.44;75.25;101669.47;4992517;28;20374;-43
2022/09/21 05:44:01;;;;;;;14.98;7.15;;;;;;;13.45;75.31;101668.31;4993353;28;20397;-43
2022/09/21 05:46:30;;;;;;;12.77;8.23;;;;;;;13.48;75.27;101667.63;4996180;28;20046;-49
2022/09/21 05:49:04;;;;;;;13.85;7.32;;;;;;;13.48;75.44;101662.06;4991922;28;20054;-43
2022/09/21 05:51:54;;;;;;;11.85;6.78;;;;;;;13.48;75.52;101662.06;4990755;28;20484;-50
2022/09/21 05:54:25;;;;;;;14.38;6.63;;;;;;;13.47;75.55;101660.47;4988769;28;20053;-43
2022/09/21 05:56:59;;;;;;;12.93;7.78;;;;;;;13.48;75.42;101664.84;4991795;28;20042;-45
2022/09/21 05:59:47;;;;;;;10.35;6.78;;;;;;;13.48;75.45;101664.84;4991955;28;20064;-43
2022/09/21 06:02:52;;;;;;;9.65;6.22;;;;;;;13.46;75.42;101661.59;4997343;28;20054;-43
2022/09/21 06:05:19;;;;;;;11.98;6.18;;;;;;;13.45;75.03;101656.41;4996623;28;20047;-47
2022/09/21 06:07:46;;;;;;;11.63;5.75;;;;;;;13.42;75.06;101655.09;4991707;28;20060;-45
2022/09/21 06:10:14;;;;;;;8.25;5.22;;;;;;;13.39;74.94;101650.22;4991548;28;20062;-43
2022/09/21 06:12:41;;;;;;;8.18;6.47;;;;;;;13.36;74.82;101653.69;4991741;28;20500;-44
2022/09/21 06:15:12;;;;;;;9.35;4.95;;;;;;;13.36;74.90;101650.91;4991528;28;20658;-45
2022/09/21 06:17:40;;;;;;;12.63;6.43;;;;;;;13.35;74.65;101654.84;4994953;28;20070;-47
2022/09/21 06:20:07;;;;;;;7.10;4.25;;;;;;;13.35;74.65;101654.84;4991282;28;20057;-45
2022/09/21 06:22:34;;;;;;;7.43;4.18;;;;;;;13.37;74.58;101658.06;4991389;28;20129;-45
2022/09/21 06:25:01;;;;;;;8.75;4.30;;;;;;;13.41;74.71;101656.25;4996970;28;20046;-46
2022/09/21 06:27:28;;;;;;;9.45;4.43;;;;;;;13.44;74.69;101647.22;4991470;28;20053;-47
2022/09/21 06:29:58;;;;;;;8.10;3.97;;;;;;;13.49;74.54;101660.09;4990527;28;20113;-42
2022/09/21 06:32:25;;;;;;;6.28;3.90;;;;;;;13.52;74.81;101654.69;4990485;28;20677;-46
2022/09/21 06:34:51;;;;;;;6.70;4.43;;;;;;;13.58;74.52;101658.84;4991293;28;20050;-44
2022/09/21 06:37:18;;;;;;;7.55;4.22;;;;;;;13.63;74.87;101655.06;4995810;28;20042;-44
2022/09/21 06:39:45;;;;;;;6.43;5.13;;;;;;;13.66;74.74;101660.72;4989657;28;20042;-43
2022/09/21 06:42:12;;;;;;;6.90;3.38;;;;;;;13.70;74.72;101655.28;4996163;28;20484;-43
2022/09/21 06:44:38;;;;;;;8.30;3.70;;;;;;;13.73;74.74;101651.81;4977628;28;20034;-45
2022/09/21 06:47:05;;;;;;;6.13;3.20;;;;;;;13.76;74.64;101657.53;4991366;28;20049;-45
2022/09/21 06:49:32;;;;;;;9.95;3.50;;;;;;;13.79;74.42;101654.03;4988770;28;20050;-44
2022/09/21 06:52:02;;;;;;;5.45;3.35;;;;;;;13.85;74.64;101652.66;4990839;28;20054;-45
2022/09/21 06:54:29;;;;;;;6.75;3.00;;;;;;;13.89;74.28;101650.00;5000832;28;20038;-46
2022/09/21 06:56:56;;;;;;;4.28;2.75;;;;;;;13.91;74.42;101653.25;4987671;28;20035;-47
2022/09/21 06:59:25;;;;;;;7.00;3.25;;;;;;;13.95;74.45;101651.41;4997125;28;20046;-48
2022/09/21 07:01:54;;;;;;;6.53;2.92;;;;;;;13.98;74.21;101648.72;4990737;28;20054;-48
2022/09/21 07:04:23;;;;;;;3.85;2.50;;;;;;;14.07;74.21;101642.25;4989229;28;20057;-47
2022/09/21 07:06:50;;;;;;;9.43;3.03;;;;;;;14.13;74.10;101646.44;4989709;28;20058;-47
2022/09/21 07:09:18;;;;;;;4.75;2.90;;;;;;;14.19;74.11;101640.28;4997114;28;20052;-43
2022/09/21 07:12:05;;;;;;;5.82;2.83;;;;;;;14.26;73.99;101640.53;4981113;28;20070;-44
2022/09/21 07:14:32;;;;;;;6.93;2.47;;;;;;;14.34;73.84;101647.16;4985285;28;20477;-44
2022/09/21 07:16:59;;;;;;;5.30;2.70;;;;;;;14.40;73.68;101643.00;4986850;28;20054;-48
2022/09/21 07:19:26;;;;;;;11.55;3.97;;;;;;;14.47;73.85;101644.03;4988722;28;20057;-48
2022/09/21 07:21:54;;;;;;;5.57;2.20;;;;;;;14.53;73.67;101652.97;4988595;28;20073;-43
2022/09/21 07:24:21;;;;;;;7.68;2.92;;;;;;;14.59;73.48;101644.00;4982804;28;20101;-45
2022/09/21 07:26:49;;;;;;;4.88;2.33;;;;;;;14.67;73.50;101645.03;4989945;28;20046;-45
2022/09/21 07:29:16;;;;;;;4.60;2.45;;;;;;;14.72;73.25;101636.44;5000817;28;20093;-49
2022/09/21 07:31:47;;;;;;;4.07;2.00;;;;;;;14.75;73.07;101637.69;4980014;28;20043;-45
2022/09/21 07:34:15;;;;;;;4.43;2.00;;;;;;;14.81;72.80;101630.72;4976093;28;20393;-49
2022/09/21 07:36:42;;;;;;;2.72;1.83;;;;;;;14.85;72.62;101634.44;4998318;28;20048;-51
2022/09/21 07:39:09;;;;;;;3.25;1.60;;;;;;;14.85;72.07;101635.22;4985473;28;21122;-56
2022/09/21 07:41:36;;;;;;;3.08;1.75;;;;;;;14.88;71.64;101631.75;4978144;28;20057;-50
2022/09/21 07:44:03;;;;;;;4.30;1.90;;;;;;;14.89;71.19;101636.16;4975348;28;20070;-56
2022/09/21 07:46:31;;;;;;;6.05;2.15;;;;;;;14.94;70.98;101638.72;4987386;28;20046;-53
2022/09/21 07:48:57;;;;;;;4.25;1.85;;;;;;;15.01;70.95;101633.31;4984411;28;20058;-55
2022/09/21 07:51:25;;;;;;;2.47;2.17;;;;;;;15.07;70.64;101631.91;4981904;28;20042;-54
2022/09/21 07:53:58;;;;;;;3.35;1.63;;;;;;;15.12;70.28;101634.47;4989015;28;20078;-50
2022/09/21 07:56:25;;;;;;;3.72;1.88;;;;;;;15.16;69.96;101640.97;4982116;28;20057;-52
2022/09/21 07:59:07;;;;;;;4.15;1.40;;;;;;;15.20;69.69;101633.50;5002017;28;20046;-48
2022/09/21 08:01:39;;;;;;;5.07;1.65;;;;;;;15.22;69.47;101636.72;4988241;28;20086;-57
2022/09/21 08:04:08;;;;;;;4.75;1.52;;;;;;;15.23;69.05;101623.59;4977214;28;20680;-53
2022/09/21 08:06:38;;;;;;;3.38;1.40;;;;;;;15.26;68.90;101628.47;5002504;28;20038;-50
2022/09/21 08:09:07;;;;;;;2.45;1.67;;;;;;;15.30;68.54;101628.59;4984804;28;20559;-51
2022/09/21 08:11:36;;;;;;;3.92;1.70;;;;;;;15.32;68.36;101624.28;4977453;28;20046;-50
2022/09/21 08:14:03;;;;;;;2.88;1.63;;;;;;;15.35;68.40;101625.53;4976323;28;20038;-49
2022/09/21 08:16:30;;;;;;;3.38;1.42;;;;;;;15.36;68.18;101622.38;4986363;28;20060;-51
2022/09/21 08:18:58;;;;;;;2.38;1.35;;;;;;;15.38;67.91;101613.66;4981466;28;20100;-52
2022/09/21 08:21:25;;;;;;;3.75;1.73;;;;;;;15.39;67.72;101606.91;4982213;28;20048;-52
2022/09/21 08:23:52;;;;;;;3.45;1.33;;;;;;;15.41;67.70;101610.16;4985999;28;20056;-53
2022/09/21 08:26:19;;;;;;;3.22;1.80;;;;;;;15.44;67.70;101606.63;4985997;28;20046;-54
2022/09/21 08:28:48;;;;;;;4.95;1.30;;;;;;;15.47;67.38;101605.97;4988163;28;20044;-51
2022/09/21 08:31:18;;;;;;;2.00;1.50;;;;;;;15.49;67.38;101607.22;4980525;28;20098;-52
2022/09/21 08:33:46;;;;;;;2.70;1.92;;;;;;;15.55;67.25;101607.78;4980699;28;20070;-50
2022/09/21 08:36:13;;;;;;;4.88;1.95;;;;;;;15.58;67.17;101607.06;4987299;28;20162;-54
2022/09/21 08:38:40;;;;;;;1.52;1.33;;;;;;;15.65;67.33;101607.25;5001751;28;20061;-51
2022/09/21 08:41:19;;;;;;;5.63;1.45;;;;;;;15.74;67.24;101611.50;4982904;28;20068;-53
2022/09/21 08:44:01;;;;;;;4.60;1.60;;;;;;;15.89;66.98;101597.88;4989397;28;20075;-55
2022/09/21 08:46:31;;;;;;;2.25;1.15;;;;;;;16.05;66.72;101599.50;4977119;28;20030;-51
2022/09/21 08:49:02;;;;;;;3.83;1.70;;;;;;;16.21;66.75;101608.69;4992090;28;20038;-51
2022/09/21 08:51:35;;;;;;;20.40;2.50;;;;;;;16.35;66.58;101597.88;4979472;28;20492;-53
2022/09/21 08:54:18;;;;;;;4.10;1.73;;;;;;;16.53;66.85;101603.88;4982789;28;20046;-56
2022/09/21 08:56:45;;;;;;;2.78;1.67;;;;;;;16.75;67.11;101610.78;4981184;28;20085;-52
2022/09/21 08:59:32;;;;;;;2.28;1.38;;;;;;;17.01;67.50;101605.34;4990938;28;20160;-57
2022/09/21 09:02:04;;;;;;;1.98;1.55;;;;;;;17.33;67.22;101598.41;4977709;28;20532;-49
2022/09/21 09:04:35;;;;;;;2.10;1.30;;;;;;;17.66;66.46;101609.03;4989824;28;20439;-49
2022/09/21 09:07:14;;;;;;;4.35;1.13;;;;;;;18.13;64.93;101597.47;4990831;28;20073;-47
2022/09/21 09:09:47;;;;;;;2.58;1.50;;;;;;;18.81;63.08;101603.72;4995016;28;20048;-47
2022/09/21 09:12:52;;;;;;;1.35;1.23;;;;;;;19.64;61.54;101597.91;4988668;28;20062;-48
2022/09/21 09:15:40;;;;;;;2.20;1.30;;;;;;;20.10;59.63;101601.94;4980553;28;20058;-51
2022/09/21 09:18:36;;;;;;;2.83;1.17;;;;;;;20.62;58.31;101606.38;4996061;28;20140;-46
2022/09/21 09:21:15;;;;;;;1.25;1.10;;;;;;;21.18;56.70;101609.47;4970862;28;20066;-45
2022/09/21 09:24:01;;;;;;;2.55;1.30;;;;;;;21.73;55.03;101612.06;4986492;28;20047;-45
2022/09/21 09:26:50;;;;;;;1.80;0.90;;;;;;;21.88;54.41;101590.34;4988509;28;20050;-47
2022/09/21 09:29:51;;;;;;;5.38;1.40;;;;;;;21.86;53.78;101599.22;4986259;28;20090;-48
2022/09/21 09:32:22;;;;;;;3.35;1.15;;;;;;;21.85;52.96;101591.91;4981128;28;20220;-47
2022/09/21 09:35:21;;;;;;;1.65;1.10;;;;;;;21.94;52.84;101589.53;4985078;28;20065;-44
2022/09/21 09:37:50;;;;;;;1.27;0.90;;;;;;;21.52;52.18;101590.28;4959678;28;20146;-44
2022/09/21 09:40:33;;;;;;;2.15;0.90;;;;;;;20.85;53.03;101590.00;4987069;28;20080;-45
2022/09/21 09:43:10;;;;;;;1.48;0.90;;;;;;;20.55;53.15;101592.22;4993879;28;20046;-48
2022/09/21 09:46:00;;;;;;;4.53;1.20;;;;;;;20.56;53.65;101589.03;5000982;28;20045;-46
2022/09/21 09:48:36;;;;;;;2.40;0.90;;;;;;;20.87;53.17;101581.97;4989263;28;20069;-47
2022/09/21 09:51:10;;;;;;;1.08;0.98;;;;;;;21.20;52.32;101570.47;4993991;28;20054;-43
2022/09/21 09:53:37;;;;;;;3.22;1.13;;;;;;;21.42;51.61;101581.81;4993784;28;20081;-49
2022/09/21 09:56:04;;;;;;;1.77;0.90;;;;;;;21.61;51.73;101578.59;4990572;28;20133;-47
2022/09/21 09:58:33;;;;;;;2.28;1.50;;;;;;;21.90;51.28;101573.81;4980538;28;20125;-46
2022/09/21 10:01:02;;;;;;;3.13;1.35;;;;;;;22.12;50.15;101567.78;5000181;28;20112;-47
2022/09/21 10:03:29;;;;;;;4.10;1.25;;;;;;;21.94;50.27;101575.44;4987570;28;20595;-43
2022/09/21 10:05:56;;;;;;;3.28;1.40;;;;;;;21.96;50.49;101569.41;4990586;28;20074;-43
2022/09/21 10:08:43;;;;;;;4.00;1.30;;;;;;;21.76;50.63;101557.69;4991955;28;20046;-43
2022/09/21 10:11:12;;;;;;;4.60;1.58;;;;;;;21.08;51.41;101559.56;4994962;28;20041;-41
2022/09/21 10:13:45;;;;;;;2.95;1.13;;;;;;;20.56;52.32;101560.09;4981309;28;20056;-43
2022/09/21 10:16:16;;;;;;;4.13;1.60;;;;;;;20.26;53.27;101545.44;4980335;28;20054;-45
2022/09/21 10:18:57;;;;;;;6.43;1.48;;;;;;;19.83;53.81;101547.91;4990766;28;20049;-41
2022/09/21 10:21:40;;;;;;;3.05;1.30;;;;;;;19.82;54.35;101551.91;4995026;28;20121;-42
2022/09/21 10:24:17;;;;;;;1.65;1.10;;;;;;;19.79;54.35;101558.31;4991529;28;20039;-43
2022/09/21 10:27:01;;;;;;;4.32;1.13;;;;;;;19.58;54.86;101552.50;5002236;28;20046;-42
2022/09/21 10:29:47;;;;;;;4.90;1.10;;;;;;;19.60;54.93;101547.28;4989082;28;20061;-46
2022/09/21 10:32:16;;;;;;;3.65;1.00;;;;;;;19.39;55.96;101559.13;4994995;28;20050;-44
2022/09/21 10:35:06;;;;;;;1.95;1.00;;;;;;;19.16;56.39;101552.03;5008311;28;20068;-43
2022/09/21 10:37:41;;;;;;;2.08;0.80;;;;;;;19.01;56.94;101550.25;4991401;28;20062;-43
2022/09/21 10:40:34;;;;;;;11.40;2.58;;;;;;;18.93;57.41;101540.13;4991284;28;20508;-41
2022/09/21 10:43:01;;;;;;;3.63;1.08;;;;;;;18.94;57.84;101548.16;5001468;28;20050;-41
2022/09/21 10:45:30;;;;;;;5.40;1.58;;;;;;;19.16;57.58;101547.22;4989848;28;20054;-43
2022/09/21 10:47:58;;;;;;;5.07;1.45;;;;;;;19.39;57.18;101547.09;4990047;28;20042;-43
2022/09/21 10:50:35;;;;;;;3.90;1.30;;;;;;;19.71;56.26;101542.59;4990459;28;20074;-41
2022/09/21 10:53:08;;;;;;;1.58;1.10;;;;;;;19.95;56.25;101539.19;4989856;28;20042;-46
2022/09/21 10:55:53;;;;;;;2.13;0.95;;;;;;;20.13;55.63;101535.69;4991214;28;20046;-44
2022/09/21 10:59:12;;;;;;;3.13;1.25;;;;;;;19.93;56.37;101532.34;4984088;28;20085;-45
2022/09/21 11:01:47;;;;;;;4.05;0.82;;;;;;;19.79;56.65;101530.22;4978274;28;20057;-42
2022/09/21 11:04:28;;;;;;;3.08;1.17;;;;;;;19.60;57.29;101527.63;4989916;28;20053;-45
2022/09/21 11:07:31;;;;;;;1.10;0.90;;;;;;;19.62;57.56;101530.84;4996746;28;20057;-41
2022/09/21 11:10:16;;;;;;;5.93;1.08;;;;;;;19.59;57.63;101523.19;4995194;28;20060;-43
2022/09/21 11:12:57;;;;;;;2.17;1.40;;;;;;;19.53;57.94;101521.16;4988515;28;20046;-46
2022/09/21 11:15:48;;;;;;;2.67;1.20;;;;;;;19.48;58.15;101525.13;4985424;28;20042;-48
2022/09/21 11:18:14;;;;;;;1.20;0.85;;;;;;;19.59;58.74;101517.56;4991714;28;20062;-41
2022/09/21 11:20:46;;;;;;;1.80;1.00;;;;;;;19.72;58.77;101518.13;5001507;28;20373;-43
2022/09/21 11:23:27;;;;;;;1.90;1.08;;;;;;;19.75;58.55;101515.31;4991121;28;20500;-42
2022/09/21 11:26:18;;;;;;;3.08;0.93;;;;;;;19.79;58.75;101510.53;4990373;28;20077;-41
2022/09/21 11:29:02;;;;;;;1.45;0.90;;;;;;;19.76;58.81;101505.69;4986684;28;20042;-44
2022/09/21 11:31:31;;;;;;;2.05;0.70;;;;;;;19.73;58.57;101506.47;4988377;28;20050;-46
2022/09/21 11:34:25;;;;;;;1.95;0.82;;;;;;;19.77;59.20;101507.31;4976860;28;20065;-43
2022/09/21 11:37:21;;;;;;;2.53;0.98;;;;;;;19.95;59.00;101488.59;4990042;28;20046;-46
2022/09/21 11:40:31;;;;;;;1.85;0.88;;;;;;;19.92;58.99;101492.16;4968378;28;20140;-42
2022/09/21 11:43:07;;;;;;;1.27;1.10;;;;;;;19.92;58.94;101492.16;4970971;28;20508;-42
2022/09/21 11:45:39;;;;;;;1.50;0.75;;;;;;;20.01;58.67;101487.00;4990060;28;20053;-44
2022/09/21 11:48:35;;;;;;;1.90;0.90;;;;;;;20.15;58.67;101485.50;4989703;28;20141;-41
2022/09/21 11:51:43;;;;;;;4.20;1.10;;;;;;;20.17;58.72;101481.09;5012418;28;20052;-42
2022/09/21 11:54:33;;;;;;;3.65;1.10;;;;;;;20.04;59.00;101489.03;4984323;28;20050;-47
2022/09/21 11:57:19;;;;;;;1.35;0.57;;;;;;;19.89;58.96;101478.91;4989542;28;20050;-44
2022/09/21 12:00:14;;;;;;;3.60;0.90;;;;;;;19.79;59.47;101470.38;4991298;28;20038;-43